Cottonwood Airport (P52)
Cottonwood, AZ
Field Elevation: 3562
Lat: 34°43.80N  Long: 112°02.10W
CTAF/Unicom Freq: 122.7000
   
   NOTAM:   Be advised. P52 Unicom is 122.7
Weather Advisories
2018-12-13   04:24 Z
Altimeter 30.18" Hg
Wind 280° @ 13 KT
Gusts 23 KT
Visibility 10 SM
Temperature 11° C (52° F)
Dewpoint -13° C (9° F)
Relative Humidity 17%
Density Altitude --
Condensation Altitude 15,800 feet
Wind and Runways
Indicated Runway = 32
Headwind = 10 kt
Crosswind = 8 kt
History
 
 
 
More Info
NOAA Forecast
 
 
About Us
Belfort Instrument
 
 
FAA Disclaimer: The data displayed is for advisory purposes only and is not to be used for flight planning or operations. For official data, please call (not available) to hear the current automated AWOS voice message.
  METAR P52 130424Z AUTO 28013G23KT 10 SM 11/M13 A3018